Terminal Aerodrome Forecast
Issued by NWS

Home | Current Version | Previous Version | Text Only | Print | Product List | Glossary Off
Versions: 1 2 3 4 5 6 7 8 9 10 11 12 13

902
FTUS43 KMPX 111720
TAFAXN
TAF
KAXN 111720Z 1118/1218 33022G32KT P6SM -SHSN SCT007 OVC012
     FM112300 33017G25KT P6SM SCT015
     FM120400 33012KT P6SM SKC
     FM120900 31009KT P6SM BKN080
     FM121300 27006KT P6SM BKN025 OVC080=

USA.gov is the U.S. government's official web portal to all federal, state and local government web resources and services.